Time;durP1;ratioP1;P1;durP2;ratioP2;P2;SDS_P1;SDS_P2;PMS_P1;PMS_P2;Temp;Humidity;BMP_temperature;BMP_pressure;BME280_temperature;BME280_humidity;BME280_pressure;Samples;Min_cycle;Max_cycle;Signal;HPM_P1;HPM_P2
2023/09/15 00:01:21;;;;;;;;;;;25.90;75.60;;;;;;5107758;27;42952;-78
2023/09/15 00:03:47;;;;;;;;;;;25.50;76.10;;;;;;5107506;27;42865;-77
2023/09/15 00:06:13;;;;;;;;;;;25.80;76.40;;;;;;5107215;27;43180;-78
2023/09/15 00:08:38;;;;;;;;;;;25.80;76.40;;;;;;5107318;27;43098;-78
2023/09/15 00:11:03;;;;;;;;;;;25.90;76.40;;;;;;5106548;27;42997;-78
2023/09/15 00:13:31;;;;;;;;;;;25.90;76.20;;;;;;5106749;27;43618;-78
2023/09/15 00:15:58;;;;;;;;;;;26.10;76.20;;;;;;5105938;27;42885;-78
2023/09/15 00:18:25;;;;;;;;;;;26.00;76.00;;;;;;5107138;27;43597;-78
2023/09/15 00:20:50;;;;;;;;;;;26.00;76.30;;;;;;5106685;27;43456;-78
2023/09/15 00:23:17;;;;;;;;;;;25.90;75.70;;;;;;5094898;27;43618;-78
2023/09/15 00:25:45;;;;;;;;;;;25.90;76.30;;;;;;5085797;28;42993;-78
2023/09/15 00:28:13;;;;;;;;;;;25.80;75.80;;;;;;5084934;27;43839;-78
2023/09/15 00:30:39;;;;;;;;;;;25.90;76.40;;;;;;5118407;27;42952;-78
2023/09/15 00:33:04;;;;;;;;;;;25.50;75.90;;;;;;5086386;28;42922;-78
2023/09/15 00:35:30;;;;;;;;;;;25.90;76.00;;;;;;5086649;28;42764;-78
2023/09/15 00:37:55;;;;;;;;;;;25.90;76.10;;;;;;5085917;28;43289;-78
2023/09/15 00:40:21;;;;;;;;;;;25.80;75.90;;;;;;5086117;28;42924;-78
2023/09/15 00:42:49;;;;;;;;;;;25.80;75.60;;;;;;5084461;28;44685;-78
2023/09/15 00:45:14;;;;;;;;;;;25.80;75.60;;;;;;5086449;28;43048;-78
2023/09/15 00:47:43;;;;;;;;;;;25.90;76.20;;;;;;5086324;28;43684;-78
2023/09/15 00:50:10;;;;;;;;;;;25.90;75.90;;;;;;5085655;28;42940;-78
2023/09/15 00:52:36;;;;;;;;;;;25.90;75.10;;;;;;5085622;28;43606;-78
2023/09/15 00:55:03;;;;;;;;;;;25.90;75.60;;;;;;5085723;28;42946;-78
2023/09/15 00:57:29;;;;;;;;;;;25.80;75.60;;;;;;5086021;28;42933;-78
2023/09/15 00:59:54;;;;;;;;;;;25.70;75.90;;;;;;5099361;27;43107;-78
2023/09/15 01:02:20;;;;;;;;;;;25.70;76.10;;;;;;5106160;27;43437;-78
2023/09/15 01:04:46;;;;;;;;;;;25.70;75.60;;;;;;5106466;27;42971;-78
2023/09/15 01:07:12;;;;;;;;;;;25.80;76.30;;;;;;5106514;27;42870;-78
2023/09/15 01:09:39;;;;;;;;;;;25.50;76.10;;;;;;5106393;27;42974;-78
2023/09/15 01:12:06;;;;;;;;;;;25.60;76.00;;;;;;5106234;27;42951;-78
2023/09/15 01:14:31;;;;;;;;;;;25.70;75.30;;;;;;5106571;27;42918;-78
2023/09/15 01:17:18;;;;;;;;;;;25.60;76.20;;;;;;5105766;27;42878;-78
2023/09/15 01:19:59;;;;;;;;;;;25.70;73.60;;;;;;5105873;27;43183;-78
2023/09/15 01:22:39;;;;;;;;;;;25.70;73.60;;;;;;5105736;27;43320;-79
2023/09/15 01:25:05;;;;;;;;;;;25.60;73.40;;;;;;5106061;27;42966;-77
2023/09/15 01:27:50;;;;;;;;;;;25.60;75.30;;;;;;5104348;27;45710;-78
2023/09/15 01:30:17;;;;;;;;;;;25.60;73.30;;;;;;5103844;27;43130;-78
2023/09/15 01:32:43;;;;;;;;;;;25.50;75.60;;;;;;5104935;27;43657;-78
2023/09/15 01:35:08;;;;;;;;;;;25.60;75.80;;;;;;5105761;27;42986;-78
2023/09/15 01:37:34;;;;;;;;;;;25.60;75.50;;;;;;5081231;27;43516;-78
2023/09/15 01:39:59;;;;;;;;;;;25.60;74.50;;;;;;5084898;27;43059;-78
2023/09/15 01:42:26;;;;;;;;;;;25.50;74.80;;;;;;5085518;27;42946;-78
2023/09/15 01:44:52;;;;;;;;;;;25.70;74.80;;;;;;5085498;27;42841;-78
2023/09/15 01:47:19;;;;;;;;;;;25.70;74.80;;;;;;5084804;27;43001;-78
2023/09/15 01:49:44;;;;;;;;;;;25.70;74.40;;;;;;5084441;27;42914;-77
2023/09/15 01:52:12;;;;;;;;;;;25.80;74.20;;;;;;5084154;27;63411;-78
2023/09/15 01:54:38;;;;;;;;;;;25.70;74.00;;;;;;5085263;27;42818;-78
2023/09/15 01:57:04;;;;;;;;;;;25.80;74.10;;;;;;5093725;27;43587;-78
2023/09/15 01:59:30;;;;;;;;;;;25.60;73.40;;;;;;5105802;27;42726;-78
2023/09/15 02:01:55;;;;;;;;;;;25.70;74.10;;;;;;5105712;27;43033;-78
2023/09/15 02:04:21;;;;;;;;;;;25.60;74.20;;;;;;5105237;27;43065;-78
2023/09/15 02:06:46;;;;;;;;;;;25.60;74.30;;;;;;5105519;27;43001;-78
2023/09/15 02:09:15;;;;;;;;;;;25.70;74.40;;;;;;5105048;27;42967;-78
2023/09/15 02:11:40;;;;;;;;;;;25.50;71.60;;;;;;5105723;27;42937;-79
2023/09/15 02:14:06;;;;;;;;;;;25.70;74.10;;;;;;5105424;27;43049;-78
2023/09/15 02:16:32;;;;;;;;;;;25.80;74.30;;;;;;5105228;27;42779;-79
2023/09/15 02:18:57;;;;;;;;;;;25.50;74.00;;;;;;5105727;27;42796;-78
2023/09/15 02:21:23;;;;;;;;;;;25.60;73.50;;;;;;5105473;27;43512;-78
2023/09/15 02:23:49;;;;;;;;;;;25.50;73.70;;;;;;5105485;27;42879;-78
2023/09/15 02:26:14;;;;;;;;;;;25.50;74.10;;;;;;5104993;27;43026;-78
2023/09/15 02:28:40;;;;;;;;;;;25.20;73.70;;;;;;5104840;27;42877;-78
2023/09/15 02:31:05;;;;;;;;;;;25.50;74.00;;;;;;5105287;27;42926;-78
2023/09/15 02:33:31;;;;;;;;;;;25.20;73.60;;;;;;5105596;27;42976;-79
2023/09/15 02:35:57;;;;;;;;;;;25.50;73.90;;;;;;5105092;27;42940;-78
2023/09/15 02:38:22;;;;;;;;;;;25.50;73.90;;;;;;5105012;27;43007;-78
2023/09/15 02:40:48;;;;;;;;;;;25.40;73.80;;;;;;5104615;27;43008;-78
2023/09/15 02:43:14;;;;;;;;;;;25.70;74.10;;;;;;5104870;27;42952;-78
2023/09/15 02:45:39;;;;;;;;;;;25.40;73.70;;;;;;5104654;27;43075;-78
2023/09/15 02:48:05;;;;;;;;;;;25.40;73.80;;;;;;5104138;27;43729;-78
2023/09/15 02:50:31;;;;;;;;;;;25.40;73.40;;;;;;5104873;27;42956;-78
2023/09/15 02:52:56;;;;;;;;;;;25.60;73.70;;;;;;5106502;27;42817;-78
2023/09/15 02:55:22;;;;;;;;;;;25.80;73.90;;;;;;5107807;27;43473;-79
2023/09/15 02:57:51;;;;;;;;;;;25.40;73.50;;;;;;5108216;27;42964;-78
2023/09/15 03:00:17;;;;;;;;;;;25.50;71.20;;;;;;5106339;27;45563;-78
2023/09/15 03:02:44;;;;;;;;;;;25.50;73.60;;;;;;5106770;27;43014;-78
2023/09/15 03:05:09;;;;;;;;;;;25.50;73.60;;;;;;5106434;27;43867;-78
2023/09/15 03:07:39;;;;;;;;;;;25.80;73.50;;;;;;5106558;27;42894;-78
2023/09/15 03:10:08;;;;;;;;;;;25.50;73.50;;;;;;5106307;27;43024;-78
2023/09/15 03:12:34;;;;;;;;;;;25.50;71.00;;;;;;5108169;27;43005;-78
2023/09/15 03:15:04;;;;;;;;;;;25.50;73.20;;;;;;5108246;27;43734;-78
2023/09/15 03:17:29;;;;;;;;;;;25.70;73.30;;;;;;5108109;27;42995;-78
2023/09/15 03:19:55;;;;;;;;;;;25.60;73.40;;;;;;5107928;27;43161;-79
2023/09/15 03:22:20;;;;;;;;;;;25.50;73.10;;;;;;5108294;27;42952;-78
2023/09/15 03:24:46;;;;;;;;;;;25.50;72.70;;;;;;5106866;27;45020;-78
2023/09/15 03:27:12;;;;;;;;;;;25.40;72.70;;;;;;5107407;27;43035;-79
2023/09/15 03:29:37;;;;;;;;;;;25.70;72.90;;;;;;5107511;27;43486;-78
2023/09/15 03:32:03;;;;;;;;;;;26.00;73.20;;;;;;5107991;27;43402;-78
2023/09/15 03:34:28;;;;;;;;;;;25.80;72.70;;;;;;5107444;27;43630;-78
2023/09/15 03:36:54;;;;;;;;;;;25.70;72.30;;;;;;5099276;27;42751;-77
2023/09/15 03:39:19;;;;;;;;;;;25.90;73.30;;;;;;5102166;27;43750;-77
2023/09/15 03:41:45;;;;;;;;;;;25.80;72.00;;;;;;5106067;27;42996;-78
2023/09/15 03:44:10;;;;;;;;;;;25.80;72.10;;;;;;5105375;27;43523;-78
2023/09/15 03:46:36;;;;;;;;;;;26.00;72.40;;;;;;5105897;27;43016;-77
2023/09/15 03:49:03;;;;;;;;;;;25.80;72.10;;;;;;5104053;27;44124;-78
2023/09/15 03:51:29;;;;;;;;;;;25.70;72.10;;;;;;5106698;27;42893;-77
2023/09/15 03:53:55;;;;;;;;;;;25.70;72.10;;;;;;5105462;27;44728;-78
2023/09/15 03:56:20;;;;;;;;;;;25.70;72.40;;;;;;5107024;27;42984;-78
2023/09/15 03:58:45;;;;;;;;;;;25.40;72.10;;;;;;5106320;27;43471;-79
2023/09/15 04:01:11;;;;;;;;;;;25.60;71.80;;;;;;5107180;27;43008;-78
2023/09/15 04:03:37;;;;;;;;;;;25.60;72.20;;;;;;5105962;27;42886;-79
2023/09/15 04:06:04;;;;;;;;;;;25.60;72.00;;;;;;5106449;27;42904;-78
2023/09/15 04:08:29;;;;;;;;;;;25.60;72.30;;;;;;5106328;27;43294;-77
2023/09/15 04:10:56;;;;;;;;;;;25.40;72.30;;;;;;5106267;27;42925;-77
2023/09/15 04:13:22;;;;;;;;;;;25.60;72.20;;;;;;5106730;27;43302;-78
2023/09/15 04:15:47;;;;;;;;;;;25.50;72.80;;;;;;5106718;27;42853;-77
2023/09/15 04:18:13;;;;;;;;;;;25.40;72.70;;;;;;5100078;27;42908;-78
2023/09/15 04:20:38;;;;;;;;;;;25.60;73.20;;;;;;5102097;27;42981;-78
2023/09/15 04:23:04;;;;;;;;;;;25.50;73.00;;;;;;5106132;27;43531;-78
2023/09/15 04:25:30;;;;;;;;;;;25.50;72.60;;;;;;5105886;27;43025;-78
2023/09/15 04:27:55;;;;;;;;;;;25.40;72.80;;;;;;5106541;27;43012;-78
2023/09/15 04:30:21;;;;;;;;;;;25.40;72.90;;;;;;5104008;27;42988;-78
2023/09/15 04:32:53;;;;;;;;;;;25.40;72.90;;;;;;5090390;27;43038;-78
2023/09/15 04:35:18;;;;;;;;;;;25.20;69.90;;;;;;5091002;27;42893;-78
2023/09/15 04:37:43;;;;;;;;;;;25.30;73.00;;;;;;5105397;27;44223;-78
2023/09/15 04:40:10;;;;;;;;;;;25.50;72.50;;;;;;5101224;27;43114;-77
2023/09/15 04:42:40;;;;;;;;;;;27.20;73.90;;;;;;5102498;27;43003;-78
2023/09/15 04:45:05;;;;;;;;;;;25.50;73.10;;;;;;5102735;27;42909;-79
2023/09/15 04:47:33;;;;;;;;;;;25.40;72.80;;;;;;5104677;27;43771;-78
2023/09/15 04:49:58;;;;;;;;;;;25.50;73.10;;;;;;5105032;27;42926;-78
2023/09/15 04:52:24;;;;;;;;;;;25.50;73.00;;;;;;5105203;27;43084;-77
2023/09/15 04:54:49;;;;;;;;;;;25.30;73.00;;;;;;5102181;27;43143;-78
2023/09/15 04:57:15;;;;;;;;;;;25.30;73.00;;;;;;5100572;27;43643;-78
2023/09/15 04:59:40;;;;;;;;;;;25.40;72.50;;;;;;5105226;27;43213;-78
2023/09/15 05:02:07;;;;;;;;;;;25.50;72.50;;;;;;5104749;27;43533;-78
2023/09/15 05:04:32;;;;;;;;;;;25.40;73.20;;;;;;5100376;27;42988;-78
2023/09/15 05:06:58;;;;;;;;;;;25.50;72.70;;;;;;5101295;27;42929;-76
2023/09/15 05:09:24;;;;;;;;;;;25.40;73.10;;;;;;5104817;27;42901;-77
2023/09/15 05:11:52;;;;;;;;;;;25.40;72.80;;;;;;5105828;27;43450;-78
2023/09/15 05:14:18;;;;;;;;;;;25.60;72.90;;;;;;5105821;27;43066;-78
2023/09/15 05:16:43;;;;;;;;;;;25.70;73.10;;;;;;5105352;27;42922;-77
2023/09/15 05:19:09;;;;;;;;;;;25.50;73.10;;;;;;5106236;27;42900;-79
2023/09/15 05:21:35;;;;;;;;;;;25.40;73.30;;;;;;5106032;27;44218;-78
2023/09/15 05:24:01;;;;;;;;;;;25.50;72.80;;;;;;5100956;27;43038;-77
2023/09/15 05:26:27;;;;;;;;;;;25.40;73.30;;;;;;5102048;27;43635;-77
2023/09/15 05:28:52;;;;;;;;;;;25.30;73.40;;;;;;5100323;27;43008;-77
2023/09/15 05:31:20;;;;;;;;;;;25.40;73.30;;;;;;5102148;27;43007;-77
2023/09/15 05:33:45;;;;;;;;;;;25.30;73.30;;;;;;5105438;27;43071;-78
2023/09/15 05:36:11;;;;;;;;;;;25.30;73.40;;;;;;5105220;27;43602;-77
2023/09/15 05:38:36;;;;;;;;;;;25.40;73.50;;;;;;5105780;27;42986;-76
2023/09/15 05:41:03;;;;;;;;;;;25.30;73.50;;;;;;5100580;27;43815;-79
2023/09/15 05:43:28;;;;;;;;;;;25.40;72.90;;;;;;5102730;27;42978;-78
2023/09/15 05:45:56;;;;;;;;;;;25.40;73.60;;;;;;5104808;27;42997;-81
2023/09/15 05:48:23;;;;;;;;;;;25.40;73.20;;;;;;5100167;27;42924;-78
2023/09/15 05:50:49;;;;;;;;;;;25.20;73.60;;;;;;5102442;27;43588;-76
2023/09/15 05:53:15;;;;;;;;;;;25.30;73.90;;;;;;5104917;27;42989;-80
2023/09/15 05:55:40;;;;;;;;;;;25.20;73.60;;;;;;5104196;27;43320;-77
2023/09/15 05:58:06;;;;;;;;;;;25.20;73.20;;;;;;5103416;27;42976;-78
2023/09/15 06:00:32;;;;;;;;;;;25.30;73.80;;;;;;5102227;27;43046;-77
2023/09/15 06:02:58;;;;;;;;;;;25.40;73.50;;;;;;5105833;27;42986;-81
2023/09/15 06:05:25;;;;;;;;;;;25.30;73.80;;;;;;5105316;27;43612;-83
2023/09/15 06:07:53;;;;;;;;;;;25.30;73.90;;;;;;5105198;27;42839;-80
2023/09/15 06:10:19;;;;;;;;;;;25.10;73.70;;;;;;5105430;27;42748;-82
2023/09/15 06:12:48;;;;;;;;;;;25.20;73.60;;;;;;5104268;27;42861;-81
2023/09/15 06:15:13;;;;;;;;;;;25.30;73.60;;;;;;5100717;27;42986;-81
2023/09/15 06:17:39;;;;;;;;;;;25.20;73.50;;;;;;5100037;27;43022;-80
2023/09/15 06:20:04;;;;;;;;;;;25.20;73.70;;;;;;5105131;27;43628;-80
2023/09/15 06:22:30;;;;;;;;;;;25.50;73.30;;;;;;5104889;27;42875;-79
2023/09/15 06:24:56;;;;;;;;;;;25.20;73.70;;;;;;5104441;27;42916;-81
2023/09/15 06:27:21;;;;;;;;;;;25.30;73.90;;;;;;5107661;27;42859;-82
2023/09/15 06:29:47;;;;;;;;;;;25.40;74.20;;;;;;5108663;27;42924;-83
2023/09/15 06:32:12;;;;;;;;;;;25.30;73.90;;;;;;5106400;27;43616;-79
2023/09/15 06:34:38;;;;;;;;;;;25.40;73.60;;;;;;5103119;27;43356;-80
2023/09/15 06:37:04;;;;;;;;;;;25.60;73.50;;;;;;5108511;27;43023;-80
2023/09/15 06:39:30;;;;;;;;;;;25.80;73.20;;;;;;5104818;27;42968;-81
2023/09/15 06:41:55;;;;;;;;;;;25.60;72.80;;;;;;5109679;27;42970;-79
2023/09/15 06:44:21;;;;;;;;;;;25.60;72.70;;;;;;5116835;27;43646;-77
2023/09/15 06:46:46;;;;;;;;;;;25.60;72.60;;;;;;5119331;27;42998;-77
2023/09/15 06:49:12;;;;;;;;;;;25.90;72.50;;;;;;5110002;27;43394;-76
2023/09/15 06:51:38;;;;;;;;;;;25.80;71.90;;;;;;5107463;27;42958;-75
2023/09/15 06:54:03;;;;;;;;;;;25.70;72.40;;;;;;5099190;27;43010;-81
2023/09/15 06:56:29;;;;;;;;;;;25.70;72.00;;;;;;5107214;27;43080;-81
2023/09/15 06:58:54;;;;;;;;;;;25.70;71.70;;;;;;5107536;27;43119;-76
2023/09/15 07:01:20;;;;;;;;;;;25.80;72.20;;;;;;5107693;27;43017;-76
2023/09/15 07:03:45;;;;;;;;;;;25.80;72.00;;;;;;5106784;27;43456;-77
2023/09/15 07:06:12;;;;;;;;;;;25.90;72.40;;;;;;5106818;27;43034;-77
2023/09/15 07:08:38;;;;;;;;;;;25.70;71.80;;;;;;5106827;27;42905;-76
2023/09/15 07:11:03;;;;;;;;;;;25.80;71.90;;;;;;5107287;27;42913;-80
2023/09/15 07:13:29;;;;;;;;;;;25.80;72.00;;;;;;5105968;27;42920;-79
2023/09/15 07:15:54;;;;;;;;;;;25.80;72.00;;;;;;5105169;27;42926;-77
2023/09/15 07:18:20;;;;;;;;;;;25.90;72.10;;;;;;5107091;27;44320;-75
2023/09/15 07:20:45;;;;;;;;;;;25.80;71.60;;;;;;5106666;27;43017;-77
2023/09/15 07:23:10;;;;;;;;;;;26.00;71.70;;;;;;5107303;27;42998;-77
2023/09/15 07:25:36;;;;;;;;;;;25.90;72.00;;;;;;5108001;27;42860;-76
2023/09/15 07:28:03;;;;;;;;;;;25.80;71.10;;;;;;5107920;27;43074;-76
2023/09/15 07:30:29;;;;;;;;;;;25.90;71.50;;;;;;5108289;27;43032;-76
2023/09/15 07:32:54;;;;;;;;;;;25.90;71.20;;;;;;5108154;27;42978;-76
2023/09/15 07:35:22;;;;;;;;;;;25.90;71.10;;;;;;5107826;27;42975;-78
2023/09/15 07:37:48;;;;;;;;;;;25.80;70.90;;;;;;5107313;27;43605;-76
2023/09/15 07:40:13;;;;;;;;;;;25.90;71.50;;;;;;5108052;27;42886;-77
2023/09/15 07:42:39;;;;;;;;;;;25.80;71.30;;;;;;5107767;27;43539;-81
2023/09/15 07:45:06;;;;;;;;;;;26.00;71.50;;;;;;5107928;27;42948;-77
2023/09/15 07:47:32;;;;;;;;;;;25.80;70.70;;;;;;5107858;27;42941;-77
2023/09/15 07:49:58;;;;;;;;;;;26.00;71.40;;;;;;5107725;27;43010;-76
2023/09/15 07:52:25;;;;;;;;;;;25.90;71.40;;;;;;5107739;27;43019;-81
2023/09/15 07:54:50;;;;;;;;;;;26.00;70.70;;;;;;5108298;27;42960;-81
2023/09/15 07:57:16;;;;;;;;;;;26.00;71.40;;;;;;5106966;27;42825;-77
2023/09/15 07:59:41;;;;;;;;;;;25.90;71.30;;;;;;5107164;27;43004;-77
2023/09/15 08:02:07;;;;;;;;;;;26.10;71.60;;;;;;5107713;27;43361;-77
2023/09/15 08:04:32;;;;;;;;;;;26.00;71.60;;;;;;5107643;27;42817;-76
2023/09/15 08:06:58;;;;;;;;;;;26.00;70.90;;;;;;5107391;27;42724;-81
2023/09/15 08:09:23;;;;;;;;;;;25.90;71.60;;;;;;5107523;27;43147;-81
2023/09/15 08:11:49;;;;;;;;;;;26.00;71.70;;;;;;5106992;27;42861;-77
2023/09/15 08:14:14;;;;;;;;;;;26.00;70.80;;;;;;5106684;27;43206;-76
2023/09/15 08:16:40;;;;;;;;;;;25.80;70.90;;;;;;5107112;27;42909;-77
2023/09/15 08:19:06;;;;;;;;;;;26.00;70.50;;;;;;5107508;27;42925;-75
2023/09/15 08:21:32;;;;;;;;;;;25.90;71.00;;;;;;5107570;27;42971;-81
2023/09/15 08:23:57;;;;;;;;;;;26.10;71.20;;;;;;5106900;27;42890;-77
2023/09/15 08:26:25;;;;;;;;;;;26.00;71.10;;;;;;5106621;27;42774;-77
2023/09/15 08:28:50;;;;;;;;;;;26.00;71.40;;;;;;5107642;27;42743;-77
2023/09/15 08:31:16;;;;;;;;;;;26.00;71.80;;;;;;5106932;27;42902;-78
2023/09/15 08:33:41;;;;;;;;;;;25.90;71.60;;;;;;5105136;27;43043;-80
2023/09/15 08:36:07;;;;;;;;;;;25.90;72.10;;;;;;5105274;27;44840;-82
2023/09/15 08:38:32;;;;;;;;;;;26.00;71.70;;;;;;5106737;27;43296;-80
2023/09/15 08:41:01;;;;;;;;;;;26.00;71.20;;;;;;5105567;27;43971;-76
2023/09/15 08:43:27;;;;;;;;;;;26.00;72.40;;;;;;5107268;27;42890;-78
2023/09/15 08:45:53;;;;;;;;;;;26.00;71.70;;;;;;5107189;27;44424;-78
2023/09/15 08:48:21;;;;;;;;;;;26.00;71.20;;;;;;5106717;27;43022;-76
2023/09/15 08:50:47;;;;;;;;;;;25.90;71.80;;;;;;5105492;27;42862;-78
2023/09/15 08:53:13;;;;;;;;;;;26.00;71.00;;;;;;5106788;27;42882;-80
2023/09/15 08:55:39;;;;;;;;;;;26.00;71.40;;;;;;5106823;27;43379;-82
2023/09/15 08:58:06;;;;;;;;;;;25.90;70.40;;;;;;5106552;27;42753;-76
2023/09/15 09:00:32;;;;;;;;;;;26.00;69.50;;;;;;5106888;27;42926;-77
2023/09/15 09:02:59;;;;;;;;;;;26.00;69.50;;;;;;5105902;27;43027;-81
2023/09/15 09:05:26;;;;;;;;;;;25.90;68.50;;;;;;5105421;27;43570;-77
2023/09/15 09:07:53;;;;;;;;;;;25.90;68.80;;;;;;5106859;27;43022;-77
2023/09/15 09:10:19;;;;;;;;;;;26.00;68.70;;;;;;5106561;27;43789;-80
2023/09/15 09:12:44;;;;;;;;;;;25.80;68.00;;;;;;5106600;27;42964;-81
2023/09/15 09:15:10;;;;;;;;;;;26.00;68.20;;;;;;5106677;27;42977;-76
2023/09/15 09:17:38;;;;;;;;;;;26.10;68.10;;;;;;5106337;27;42980;-80
2023/09/15 09:20:05;;;;;;;;;;;26.00;67.90;;;;;;5106500;27;43649;-81
2023/09/15 09:22:32;;;;;;;;;;;25.90;67.30;;;;;;5104882;27;43236;-81
2023/09/15 09:24:57;;;;;;;;;;;25.90;67.80;;;;;;5106086;27;43664;-76
2023/09/15 09:27:30;;;;;;;;;;;25.90;67.70;;;;;;5106439;27;42868;-81
2023/09/15 09:29:55;;;;;;;;;;;25.90;67.80;;;;;;5106342;27;42992;-81
2023/09/15 09:32:21;;;;;;;;;;;26.00;68.30;;;;;;5106013;27;42843;-81
2023/09/15 09:34:50;;;;;;;;;;;26.00;67.90;;;;;;5104121;27;44649;-78
2023/09/15 09:37:17;;;;;;;;;;;25.90;65.90;;;;;;5106140;27;42862;-75
2023/09/15 09:39:44;;;;;;;;;;;25.90;68.50;;;;;;5105945;27;43065;-76
2023/09/15 09:42:10;;;;;;;;;;;26.00;68.60;;;;;;5106128;27;42757;-79
2023/09/15 09:44:36;;;;;;;;;;;25.90;69.70;;;;;;5105996;27;43024;-79
2023/09/15 09:47:02;;;;;;;;;;;26.00;69.70;;;;;;5105735;27;42785;-81
2023/09/15 09:49:28;;;;;;;;;;;25.80;70.10;;;;;;5105195;27;43407;-76
2023/09/15 09:51:56;;;;;;;;;;;26.00;69.80;;;;;;5105349;27;42982;-77
2023/09/15 09:54:24;;;;;;;;;;;25.80;70.10;;;;;;5105162;27;42845;-79
2023/09/15 09:56:50;;;;;;;;;;;26.00;70.30;;;;;;5105164;27;42932;-81
2023/09/15 09:59:15;;;;;;;;;;;26.10;70.00;;;;;;5105221;27;43129;-76
2023/09/15 10:01:41;;;;;;;;;;;26.00;70.20;;;;;;5105208;27;42793;-78
2023/09/15 10:04:07;;;;;;;;;;;25.90;70.00;;;;;;5105824;27;43349;-80
2023/09/15 10:06:36;;;;;;;;;;;26.00;70.00;;;;;;5105342;27;42845;-76
2023/09/15 10:09:05;;;;;;;;;;;26.00;70.10;;;;;;5105595;27;42794;-82
2023/09/15 10:11:32;;;;;;;;;;;25.90;69.70;;;;;;5104488;27;42997;-77
2023/09/15 10:13:57;;;;;;;;;;;26.10;69.60;;;;;;5104775;27;44088;-78
2023/09/15 10:16:23;;;;;;;;;;;26.00;69.30;;;;;;5105199;27;42773;-76
2023/09/15 10:18:49;;;;;;;;;;;26.00;69.20;;;;;;5105535;27;42831;-78
2023/09/15 10:21:14;;;;;;;;;;;26.10;69.20;;;;;;5105489;27;42720;-79
2023/09/15 10:23:40;;;;;;;;;;;26.00;69.10;;;;;;5105536;27;43399;-79
2023/09/15 10:26:09;;;;;;;;;;;26.00;69.10;;;;;;5104130;27;43103;-81
2023/09/15 10:28:34;;;;;;;;;;;26.00;68.50;;;;;;5105254;27;43539;-83
2023/09/15 10:31:00;;;;;;;;;;;26.10;69.10;;;;;;5105079;27;42783;-77
2023/09/15 10:33:26;;;;;;;;;;;26.10;69.10;;;;;;5105178;27;42941;-76
2023/09/15 10:35:51;;;;;;;;;;;26.00;69.00;;;;;;5105355;27;42904;-80
2023/09/15 10:38:27;;;;;;;;;;;26.00;68.10;;;;;;5103514;27;44438;-76
2023/09/15 10:40:54;;;;;;;;;;;26.10;66.20;;;;;;5105324;27;42944;-79
2023/09/15 10:43:19;;;;;;;;;;;26.10;68.60;;;;;;5105068;27;43368;-78
2023/09/15 10:45:58;;;;;;;;;;;26.00;68.20;;;;;;5105244;27;42967;-76
2023/09/15 10:48:44;;;;;;;;;;;26.20;66.00;;;;;;5104924;27;43031;-76
2023/09/15 10:51:10;;;;;;;;;;;25.90;68.00;;;;;;5104897;27;43076;-76
2023/09/15 10:53:43;;;;;;;;;;;26.00;67.90;;;;;;5105409;27;42903;-79
2023/09/15 10:56:09;;;;;;;;;;;26.10;65.80;;;;;;5104518;27;42848;-79
2023/09/15 10:58:35;;;;;;;;;;;26.10;68.30;;;;;;5104616;27;43703;-76
2023/09/15 11:01:01;;;;;;;;;;;26.10;68.10;;;;;;5104960;27;42984;-78
2023/09/15 11:03:27;;;;;;;;;;;26.10;67.40;;;;;;5104754;27;42847;-76
2023/09/15 11:05:54;;;;;;;;;;;26.00;68.50;;;;;;5105031;27;42971;-78
2023/09/15 11:08:21;;;;;;;;;;;26.20;67.90;;;;;;5104696;27;42901;-78
2023/09/15 11:10:46;;;;;;;;;;;26.10;67.70;;;;;;5104964;27;42952;-76
2023/09/15 11:13:12;;;;;;;;;;;26.10;67.20;;;;;;5105835;27;42934;-77
2023/09/15 11:15:37;;;;;;;;;;;26.10;67.50;;;;;;5106676;27;42986;-76
2023/09/15 11:18:04;;;;;;;;;;;26.10;66.90;;;;;;5108279;27;42842;-76
2023/09/15 11:20:30;;;;;;;;;;;26.20;67.20;;;;;;5108462;27;43000;-76
2023/09/15 11:22:58;;;;;;;;;;;26.00;67.50;;;;;;5107822;27;42931;-76
2023/09/15 11:25:24;;;;;;;;;;;26.10;65.60;;;;;;5108019;27;43412;-79
2023/09/15 11:27:50;;;;;;;;;;;25.90;67.40;;;;;;5107712;27;43491;-78
2023/09/15 11:30:16;;;;;;;;;;;26.10;67.90;;;;;;5108055;27;42853;-76
2023/09/15 11:32:42;;;;;;;;;;;26.00;67.80;;;;;;5107927;27;43019;-76
2023/09/15 11:35:11;;;;;;;;;;;26.10;67.40;;;;;;5107905;27;42907;-77
2023/09/15 11:37:38;;;;;;;;;;;26.10;67.70;;;;;;5106801;27;45458;-78
2023/09/15 11:40:03;;;;;;;;;;;26.10;67.90;;;;;;5108208;27;42974;-80
2023/09/15 11:42:29;;;;;;;;;;;26.30;68.00;;;;;;5107989;27;43350;-77
2023/09/15 11:44:55;;;;;;;;;;;26.20;67.90;;;;;;5108244;27;43155;-77
2023/09/15 11:47:21;;;;;;;;;;;26.30;67.80;;;;;;5107956;27;42960;-76
2023/09/15 11:49:47;;;;;;;;;;;26.00;67.40;;;;;;5107311;27;43021;-77
2023/09/15 11:52:12;;;;;;;;;;;26.20;66.30;;;;;;5106259;27;44613;-80
2023/09/15 11:54:38;;;;;;;;;;;26.20;66.80;;;;;;5108096;27;42988;-82
2023/09/15 11:57:04;;;;;;;;;;;26.20;66.90;;;;;;5108106;27;43531;-78
2023/09/15 11:59:29;;;;;;;;;;;26.10;66.50;;;;;;5107734;27;42933;-82
2023/09/15 12:01:58;;;;;;;;;;;26.20;66.70;;;;;;5107223;27;43545;-76
2023/09/15 12:04:24;;;;;;;;;;;26.20;66.60;;;;;;5107106;27;43048;-82
2023/09/15 12:06:50;;;;;;;;;;;26.10;66.50;;;;;;5107072;27;44613;-77
2023/09/15 12:09:16;;;;;;;;;;;26.10;66.60;;;;;;5107772;27;43004;-77
2023/09/15 12:11:44;;;;;;;;;;;26.00;66.60;;;;;;5105672;27;44755;-76
2023/09/15 12:14:12;;;;;;;;;;;26.20;66.70;;;;;;5106885;27;43078;-76
2023/09/15 12:16:37;;;;;;;;;;;26.00;66.50;;;;;;5107382;27;42956;-80
2023/09/15 12:19:04;;;;;;;;;;;26.30;67.00;;;;;;5107394;27;42861;-82
2023/09/15 12:21:30;;;;;;;;;;;26.10;66.70;;;;;;5106921;27;43577;-80
2023/09/15 12:24:06;;;;;;;;;;;26.40;67.00;;;;;;5106994;27;42833;-76
2023/09/15 12:26:32;;;;;;;;;;;26.10;66.90;;;;;;5106866;27;43649;-82
2023/09/15 12:28:59;;;;;;;;;;;26.10;67.10;;;;;;5107184;27;43039;-80
2023/09/15 12:31:24;;;;;;;;;;;26.10;67.20;;;;;;5106929;27;43375;-82
2023/09/15 12:33:54;;;;;;;;;;;26.10;67.90;;;;;;5106636;27;42956;-81
2023/09/15 12:36:20;;;;;;;;;;;26.10;65.00;;;;;;5106954;27;42953;-82
2023/09/15 12:38:45;;;;;;;;;;;26.00;67.50;;;;;;5107072;27;42929;-81
2023/09/15 12:41:11;;;;;;;;;;;26.10;67.50;;;;;;5106381;27;43367;-82
2023/09/15 12:43:36;;;;;;;;;;;26.20;67.40;;;;;;5106110;27;42980;-81
2023/09/15 12:46:03;;;;;;;;;;;26.00;66.80;;;;;;5105665;27;42943;-76
2023/09/15 12:48:29;;;;;;;;;;;26.20;67.30;;;;;;5106932;27;42976;-77
2023/09/15 12:50:55;;;;;;;;;;;25.60;66.80;;;;;;5107057;27;42896;-82
2023/09/15 12:53:20;;;;;;;;;;;26.00;66.90;;;;;;5106567;27;42862;-77
2023/09/15 12:55:46;;;;;;;;;;;26.20;66.50;;;;;;5105966;27;43129;-77
2023/09/15 12:58:11;;;;;;;;;;;26.00;66.90;;;;;;5107195;27;42879;-76
2023/09/15 13:00:37;;;;;;;;;;;26.10;66.70;;;;;;5106910;27;42768;-76
2023/09/15 13:03:03;;;;;;;;;;;26.10;67.00;;;;;;5104065;27;43019;-76
2023/09/15 13:05:29;;;;;;;;;;;26.20;66.80;;;;;;5101350;27;42948;-79
2023/09/15 13:07:54;;;;;;;;;;;26.00;67.10;;;;;;5106126;27;42999;-78
2023/09/15 13:10:20;;;;;;;;;;;26.20;66.80;;;;;;5103685;27;43937;-79
2023/09/15 13:12:46;;;;;;;;;;;26.20;66.50;;;;;;5100213;27;42943;-79
2023/09/15 13:15:11;;;;;;;;;;;26.10;66.90;;;;;;5104054;27;43762;-83
2023/09/15 13:17:37;;;;;;;;;;;26.00;67.30;;;;;;5105838;27;42914;-80
2023/09/15 13:20:13;;;;;;;;;;;26.00;66.90;;;;;;5104590;27;43552;-79
2023/09/15 13:22:38;;;;;;;;;;;26.00;66.50;;;;;;5106307;27;42979;-78
2023/09/15 13:25:04;;;;;;;;;;;26.20;67.20;;;;;;5106206;27;43524;-78
2023/09/15 13:27:30;;;;;;;;;;;26.10;66.20;;;;;;5106036;27;43012;-82
2023/09/15 13:29:57;;;;;;;;;;;26.10;66.90;;;;;;5105739;27;43532;-78
2023/09/15 13:32:26;;;;;;;;;;;26.20;66.30;;;;;;5106191;27;43267;-83
2023/09/15 13:34:53;;;;;;;;;;;26.20;66.40;;;;;;5105630;27;43378;-83
2023/09/15 13:37:19;;;;;;;;;;;26.10;65.90;;;;;;5105247;27;42912;-77
2023/09/15 13:39:44;;;;;;;;;;;26.20;66.00;;;;;;5106142;27;42981;-78
2023/09/15 13:42:10;;;;;;;;;;;26.00;65.90;;;;;;5106094;27;42783;-79
2023/09/15 13:44:37;;;;;;;;;;;26.00;65.90;;;;;;5105497;27;43530;-77
2023/09/15 13:47:03;;;;;;;;;;;26.10;65.60;;;;;;5105370;27;42951;-79
2023/09/15 13:49:29;;;;;;;;;;;26.00;65.80;;;;;;5105092;27;42841;-81
2023/09/15 13:51:54;;;;;;;;;;;26.10;65.90;;;;;;5105602;27;43084;-78
2023/09/15 13:54:20;;;;;;;;;;;26.30;65.80;;;;;;5104405;27;42941;-78
2023/09/15 13:56:46;;;;;;;;;;;26.20;66.40;;;;;;5104942;27;42880;-79
2023/09/15 13:59:11;;;;;;;;;;;26.20;66.50;;;;;;5106010;27;42828;-78
2023/09/15 14:01:39;;;;;;;;;;;26.20;66.20;;;;;;5105852;27;42940;-79
2023/09/15 14:04:08;;;;;;;;;;;26.10;65.90;;;;;;5105349;27;43353;-79
2023/09/15 14:06:34;;;;;;;;;;;26.30;63.40;;;;;;5105811;27;42791;-79
2023/09/15 14:08:59;;;;;;;;;;;26.00;65.70;;;;;;5105576;27;43570;-78
2023/09/15 14:11:25;;;;;;;;;;;26.20;65.10;;;;;;5105468;27;43060;-80